createdAt,value
2023-05-08T00:01:33.798Z,73.24
2023-05-08T00:04:01.466Z,73.66
2023-05-08T00:06:29.325Z,74.54
2023-05-08T00:09:03.966Z,73.17
2023-05-08T00:11:34.533Z,72.63
2023-05-08T00:14:04.778Z,72.27
2023-05-08T00:16:36.009Z,72.27
2023-05-08T00:19:04.132Z,71.95
2023-05-08T00:21:34.109Z,71.75
2023-05-08T00:24:01.580Z,71.73
2023-05-08T00:26:28.776Z,71.71
2023-05-08T00:28:58.150Z,71.99
2023-05-08T00:31:25.985Z,72.55
2023-05-08T00:33:53.426Z,72.28
2023-05-08T00:36:21.097Z,72.61
2023-05-08T00:38:48.326Z,73.27
2023-05-08T00:41:16.328Z,73.30
2023-05-08T00:43:43.834Z,73.40
2023-05-08T00:46:11.814Z,73.93
2023-05-08T00:48:40.634Z,74.12
2023-05-08T00:51:10.083Z,74.06
2023-05-08T00:53:43.187Z,74.13
2023-05-08T00:56:15.523Z,73.64
2023-05-08T01:06:49.101Z,73.49
2023-05-08T01:18:25.437Z,73.47
2023-05-08T01:29:52.286Z,74.55
2023-05-08T01:38:04.227Z,73.05
2023-05-08T01:40:53.006Z,72.69
2023-05-08T01:58:35.433Z,74.45
2023-05-08T02:01:03.173Z,74.18
2023-05-08T02:03:33.564Z,74.11
2023-05-08T02:06:02.743Z,74.62
2023-05-08T02:08:32.543Z,74.27
2023-05-08T02:11:02.876Z,75.65
2023-05-08T02:13:32.760Z,75.12
2023-05-08T02:16:01.767Z,75.31
2023-05-08T02:18:33.296Z,74.96
2023-05-08T02:21:03.937Z,75.05
2023-05-08T02:23:34.355Z,74.50
2023-05-08T02:26:04.564Z,74.95
2023-05-08T02:28:34.594Z,75.35
2023-05-08T02:31:03.978Z,74.74
2023-05-08T02:33:33.071Z,74.46
2023-05-08T02:36:01.735Z,73.57
2023-05-08T02:38:30.805Z,73.93
2023-05-08T02:41:02.686Z,73.64
2023-05-08T02:43:30.684Z,73.54
2023-05-08T02:46:19.033Z,73.73
2023-05-08T02:48:59.583Z,73.04
2023-05-08T02:51:41.988Z,73.11
2023-05-08T02:54:20.905Z,72.66
2023-05-08T02:56:58.683Z,71.82
2023-05-08T02:59:37.575Z,71.12
2023-05-08T03:02:04.607Z,70.49
2023-05-08T03:04:37.070Z,69.94
2023-05-08T03:07:05.613Z,68.77
2023-05-08T03:09:42.435Z,69.27
2023-05-08T03:12:16.253Z,69.62
2023-05-08T03:14:58.069Z,69.41
2023-05-08T03:17:27.704Z,70.51
2023-05-08T03:19:59.096Z,70.80
2023-05-08T03:22:29.442Z,70.70
2023-05-08T03:24:59.789Z,69.70
2023-05-08T03:27:30.648Z,69.43
2023-05-08T03:30:00.128Z,68.57
2023-05-08T03:32:28.728Z,68.55
2023-05-08T03:34:59.294Z,69.11
2023-05-08T03:37:30.545Z,68.91
2023-05-08T03:39:58.790Z,69.16
2023-05-08T03:42:27.317Z,69.67
2023-05-08T03:44:54.911Z,69.49
2023-05-08T03:47:22.757Z,70.36
2023-05-08T03:49:50.658Z,70.24
2023-05-08T03:52:17.955Z,70.52
2023-05-08T03:54:47.229Z,71.40
2023-05-08T03:57:14.789Z,72.30
2023-05-08T03:59:55.351Z,73.45
2023-05-08T04:02:42.534Z,73.80
2023-05-08T04:05:10.115Z,72.96
2023-05-08T04:08:03.277Z,74.47
2023-05-08T04:10:34.832Z,73.38
2023-05-08T04:13:05.402Z,73.44
2023-05-08T04:15:38.910Z,73.99
2023-05-08T04:18:11.274Z,74.93
2023-05-08T04:20:42.951Z,73.44
2023-05-08T04:23:19.624Z,73.60
2023-05-08T04:25:48.971Z,74.46
2023-05-08T04:28:16.475Z,73.89
2023-05-08T04:30:44.617Z,73.56
2023-05-08T04:33:13.450Z,72.73
2023-05-08T04:35:41.126Z,73.17
2023-05-08T04:38:08.145Z,73.34
2023-05-08T04:40:35.608Z,71.87
2023-05-08T04:43:02.702Z,68.79
2023-05-08T04:45:29.938Z,67.71
2023-05-08T04:47:57.407Z,67.31
2023-05-08T04:50:24.401Z,68.09
2023-05-08T04:52:51.381Z,67.76
2023-05-08T04:55:18.623Z,69.56
2023-05-08T04:57:46.005Z,69.14
2023-05-08T05:00:13.784Z,68.93
2023-05-08T05:02:40.951Z,70.01
2023-05-08T05:05:08.812Z,69.88
2023-05-08T05:07:36.418Z,71.64
2023-05-08T05:10:05.170Z,70.15
2023-05-08T05:12:32.143Z,70.44
2023-05-08T05:14:59.160Z,71.22
2023-05-08T05:17:26.839Z,70.76
2023-05-08T05:19:53.844Z,70.17
2023-05-08T05:22:21.120Z,71.50
2023-05-08T05:24:48.068Z,72.07
2023-05-08T05:27:15.097Z,70.77
2023-05-08T05:29:42.350Z,71.63
2023-05-08T05:32:15.532Z,73.08
2023-05-08T05:34:42.960Z,71.71
2023-05-08T05:39:47.153Z,71.39
2023-05-08T05:44:49.443Z,71.83
2023-05-08T05:47:16.655Z,70.56
2023-05-08T05:49:47.063Z,70.43
2023-05-08T05:54:57.585Z,68.15
2023-05-08T05:57:25.531Z,68.70
2023-05-08T05:59:54.812Z,67.66
2023-05-08T06:02:22.329Z,66.09
2023-05-08T06:04:52.094Z,65.02
2023-05-08T06:07:21.522Z,63.51
2023-05-08T06:09:48.553Z,63.50
2023-05-08T06:12:16.071Z,63.83
2023-05-08T06:14:43.116Z,64.46
2023-05-08T06:17:12.569Z,65.62
2023-05-08T06:19:39.756Z,66.15
2023-05-08T06:22:06.904Z,66.94
2023-05-08T06:24:34.706Z,66.19
2023-05-08T06:27:01.719Z,66.71
2023-05-08T06:29:28.671Z,67.41
2023-05-08T06:31:55.830Z,67.46
2023-05-08T06:34:22.905Z,68.04
2023-05-08T06:36:49.955Z,68.43
2023-05-08T06:39:16.856Z,70.45
2023-05-08T06:41:44.467Z,70.04
2023-05-08T06:44:11.671Z,70.65
2023-05-08T06:46:38.708Z,71.27
2023-05-08T06:49:05.714Z,71.91
2023-05-08T06:51:32.981Z,73.54
2023-05-08T06:53:59.770Z,74.28
2023-05-08T06:56:26.733Z,74.92
2023-05-08T06:59:05.040Z,75.19
2023-05-08T07:01:35.361Z,77.06
2023-05-08T07:04:02.431Z,76.02
2023-05-08T07:06:31.218Z,78.12
2023-05-08T07:08:58.273Z,78.85
2023-05-08T07:11:25.405Z,77.90
2023-05-08T07:13:52.543Z,78.15
2023-05-08T07:16:19.620Z,79.26
2023-05-08T07:18:46.520Z,80.22
2023-05-08T07:21:15.927Z,81.39
2023-05-08T07:23:42.766Z,83.36
2023-05-08T07:26:09.834Z,84.14
2023-05-08T07:28:36.835Z,84.48
2023-05-08T07:31:09.968Z,85.74
2023-05-08T07:33:36.914Z,86.53
2023-05-08T07:36:04.004Z,86.82
2023-05-08T07:38:31.348Z,88.51
2023-05-08T07:40:59.891Z,89.38
2023-05-08T07:43:26.860Z,90.17
2023-05-08T07:45:53.888Z,89.37
2023-05-08T07:48:21.052Z,89.59
2023-05-08T07:50:50.342Z,90.00
2023-05-08T07:53:17.980Z,91.14
2023-05-08T07:55:45.325Z,91.68
2023-05-08T07:58:12.816Z,91.76
2023-05-08T08:00:40.994Z,92.26
2023-05-08T08:03:08.349Z,93.91
2023-05-08T08:05:35.308Z,94.35
2023-05-08T08:08:02.551Z,94.54
2023-05-08T08:10:30.099Z,95.06
2023-05-08T08:12:57.155Z,96.21
2023-05-08T08:15:24.175Z,97.37
2023-05-08T08:17:51.234Z,96.81
2023-05-08T08:20:18.548Z,97.85
2023-05-08T08:22:45.513Z,96.64
2023-05-08T08:25:12.571Z,97.05
2023-05-08T08:27:40.406Z,96.00
2023-05-08T08:30:16.897Z,97.75
2023-05-08T08:32:46.042Z,97.30
2023-05-08T08:35:13.500Z,98.73
2023-05-08T08:37:40.608Z,97.76
2023-05-08T08:40:08.185Z,96.70
2023-05-08T08:42:35.079Z,97.95
2023-05-08T08:45:02.332Z,97.72
2023-05-08T08:47:35.015Z,96.57
2023-05-08T08:50:04.301Z,96.64
2023-05-08T08:52:40.631Z,95.16
2023-05-08T08:55:10.302Z,96.99
2023-05-08T08:57:40.044Z,97.40
2023-05-08T09:00:08.530Z,96.31
2023-05-08T09:02:36.076Z,96.13
2023-05-08T09:05:03.810Z,97.16
2023-05-08T09:07:30.990Z,99.26
2023-05-08T09:09:58.129Z,96.59
2023-05-08T09:12:25.101Z,97.49
2023-05-08T09:14:52.416Z,98.18
2023-05-08T09:17:19.253Z,97.34
2023-05-08T09:19:49.626Z,97.81
2023-05-08T09:22:17.573Z,98.66
2023-05-08T09:25:01.028Z,100.00
2023-05-08T09:27:29.744Z,99.05
2023-05-08T09:30:14.597Z,99.21
2023-05-08T09:32:44.021Z,99.76
2023-05-08T09:58:38.676Z,100.00
2023-05-08T10:01:05.633Z,100.00
2023-05-08T10:03:51.562Z,100.00
2023-05-08T10:06:18.576Z,100.00
2023-05-08T10:08:46.717Z,100.00
2023-05-08T10:11:18.337Z,100.00
2023-05-08T10:13:46.590Z,100.00
2023-05-08T10:16:18.799Z,100.00
2023-05-08T10:18:50.458Z,100.00
2023-05-08T10:21:18.067Z,100.00
2023-05-08T10:23:49.344Z,100.00
2023-05-08T10:26:27.683Z,100.00
2023-05-08T10:29:07.203Z,100.00
2023-05-08T10:31:41.505Z,100.00
2023-05-08T10:34:11.559Z,100.00
2023-05-08T10:36:38.901Z,100.00
2023-05-08T10:39:06.441Z,100.00
2023-05-08T10:41:33.884Z,100.00
2023-05-08T10:44:03.215Z,100.00
2023-05-08T10:47:01.212Z,100.00
2023-05-08T10:49:46.662Z,100.00
2023-05-08T10:52:23.680Z,100.00
2023-05-08T10:54:50.430Z,100.00
2023-05-08T10:57:17.216Z,100.00
2023-05-08T10:59:47.694Z,100.00
2023-05-08T11:02:15.725Z,100.00
2023-05-08T11:04:44.075Z,100.00
2023-05-08T11:07:11.800Z,100.00
2023-05-08T11:09:41.601Z,100.00
2023-05-08T11:12:20.557Z,100.00
2023-05-08T11:15:06.734Z,100.00
2023-05-08T11:17:34.287Z,100.00
2023-05-08T11:20:07.024Z,100.00
2023-05-08T11:22:38.356Z,100.00
2023-05-08T11:25:06.913Z,100.00
2023-05-08T11:27:48.677Z,100.00
2023-05-08T11:30:38.039Z,100.00
2023-05-08T11:33:05.324Z,100.00
2023-05-08T11:35:52.802Z,99.63
2023-05-08T11:38:21.584Z,99.68
2023-05-08T11:41:00.063Z,99.59
2023-05-08T11:43:32.793Z,100.00
2023-05-08T11:46:15.474Z,100.00
2023-05-08T11:48:42.550Z,100.00
2023-05-08T11:51:20.299Z,100.00
2023-05-08T11:53:47.672Z,100.00
2023-05-08T11:56:14.703Z,100.00
2023-05-08T11:58:41.686Z,100.00
2023-05-08T12:01:08.712Z,100.00
2023-05-08T12:03:35.832Z,100.00
2023-05-08T12:06:02.947Z,100.00
2023-05-08T12:08:29.950Z,99.52
2023-05-08T12:10:58.093Z,100.00
2023-05-08T12:13:29.988Z,99.04
2023-05-08T12:15:59.761Z,98.57
2023-05-08T12:18:28.885Z,98.76
2023-05-08T12:21:00.328Z,98.33
2023-05-08T12:23:29.575Z,96.22
2023-05-08T12:25:59.825Z,96.25
2023-05-08T12:28:27.468Z,98.07
2023-05-08T12:30:54.652Z,97.07
2023-05-08T12:33:22.021Z,97.10
2023-05-08T12:35:49.559Z,97.30
2023-05-08T12:38:16.556Z,97.31
2023-05-08T12:40:50.158Z,98.14
2023-05-08T12:43:17.168Z,98.98
2023-05-08T12:45:44.046Z,97.99
2023-05-08T12:48:18.180Z,97.50
2023-05-08T12:50:46.354Z,99.25
2023-05-08T12:53:18.191Z,98.13
2023-05-08T12:55:56.449Z,96.41
2023-05-08T12:58:28.619Z,98.45
2023-05-08T13:01:10.186Z,97.22
2023-05-08T13:03:37.790Z,96.73
2023-05-08T13:06:05.410Z,97.34
2023-05-08T13:08:34.977Z,97.00
2023-05-08T13:11:04.158Z,96.88
2023-05-08T13:13:32.840Z,97.36
2023-05-08T13:16:03.800Z,97.11
2023-05-08T13:18:30.871Z,98.00
2023-05-08T13:20:58.621Z,98.19
2023-05-08T13:23:25.859Z,97.43
2023-05-08T13:25:52.694Z,96.98
2023-05-08T13:28:19.565Z,96.56
2023-05-08T13:30:46.429Z,96.49
2023-05-08T13:33:13.355Z,96.61
2023-05-08T13:35:40.889Z,96.67
2023-05-08T13:38:07.756Z,96.39
2023-05-08T13:40:34.636Z,97.34
2023-05-08T13:43:01.443Z,95.04
2023-05-08T13:45:28.413Z,95.42
2023-05-08T13:47:55.717Z,95.86
2023-05-08T13:50:23.077Z,96.00
2023-05-08T13:56:37.364Z,96.90
2023-05-08T13:59:04.212Z,96.72
2023-05-08T14:01:31.084Z,97.20
2023-05-08T14:03:58.114Z,97.08
2023-05-08T14:06:25.176Z,97.38
2023-05-08T14:08:54.421Z,97.37
2023-05-08T14:11:23.737Z,96.49
2023-05-08T14:13:50.724Z,97.27
2023-05-08T14:16:17.577Z,96.71
2023-05-08T14:18:44.456Z,95.68
2023-05-08T14:21:11.375Z,95.64
2023-05-08T14:23:38.991Z,93.13
2023-05-08T14:26:05.902Z,93.27
2023-05-08T14:28:32.813Z,93.06
2023-05-08T14:30:59.720Z,93.76
2023-05-08T14:33:26.638Z,95.02
2023-05-08T14:35:53.504Z,93.35
2023-05-08T14:38:20.363Z,92.66
2023-05-08T14:40:51.018Z,93.88
2023-05-08T14:43:18.440Z,92.51
2023-05-08T14:45:45.415Z,92.79
2023-05-08T14:48:12.448Z,92.01
2023-05-08T14:50:39.453Z,91.59
2023-05-08T14:53:06.560Z,90.17
2023-05-08T14:55:33.675Z,91.40
2023-05-08T14:58:00.755Z,91.43
2023-05-08T15:00:27.682Z,91.52
2023-05-08T15:02:54.547Z,89.77
2023-05-08T15:05:22.063Z,89.19
2023-05-08T15:07:50.309Z,90.42
2023-05-08T15:10:17.312Z,88.43
2023-05-08T15:12:44.382Z,88.14
2023-05-08T15:15:11.515Z,88.01
2023-05-08T15:17:41.482Z,88.94
2023-05-08T15:20:09.303Z,89.27
2023-05-08T15:22:37.033Z,88.46
2023-05-08T15:25:04.432Z,87.12
2023-05-08T15:27:32.652Z,87.82
2023-05-08T15:29:59.531Z,89.00
2023-05-08T15:32:26.451Z,89.68
2023-05-08T16:08:41.586Z,83.83
2023-05-08T16:11:08.511Z,86.28
2023-05-08T16:13:35.898Z,86.21
2023-05-08T16:16:06.368Z,87.05
2023-05-08T16:18:33.455Z,86.95
2023-05-08T16:21:00.472Z,86.85
2023-05-08T16:23:30.059Z,86.50
2023-05-08T16:25:57.170Z,87.18
2023-05-08T16:28:24.122Z,88.09
2023-05-08T16:30:51.392Z,86.20
2023-05-08T16:33:18.296Z,87.61
2023-05-08T16:35:45.223Z,87.40
2023-05-08T16:38:12.196Z,87.23
2023-05-08T16:40:39.075Z,87.57
2023-05-08T16:43:06.058Z,88.26
2023-05-08T16:45:34.649Z,87.90
2023-05-08T16:48:03.225Z,88.91
2023-05-08T16:50:30.917Z,88.82
2023-05-08T16:52:58.054Z,88.37
2023-05-08T16:55:25.277Z,88.27
2023-05-08T16:57:53.930Z,89.29
2023-05-08T17:00:21.721Z,89.49
2023-05-08T17:02:48.820Z,90.80
2023-05-08T17:05:15.896Z,90.59
2023-05-08T17:07:43.158Z,89.52
2023-05-08T17:10:10.668Z,89.74
2023-05-08T17:12:37.691Z,90.99
2023-05-08T17:15:05.607Z,92.14
2023-05-08T17:17:32.715Z,91.29
2023-05-08T17:19:59.723Z,90.89
2023-05-08T17:22:28.134Z,91.20
2023-05-08T17:24:56.889Z,90.80
2023-05-08T17:27:24.063Z,89.87
2023-05-08T17:29:52.422Z,89.22
2023-05-08T17:32:21.886Z,89.63
2023-05-08T17:34:49.164Z,90.34
2023-05-08T17:37:16.363Z,90.68
2023-05-08T17:39:43.701Z,91.04
2023-05-08T17:42:15.340Z,91.44
2023-05-08T17:44:44.168Z,91.97
2023-05-08T17:47:11.533Z,91.99
2023-05-08T17:49:41.636Z,91.46
2023-05-08T17:52:23.234Z,92.05
2023-05-08T17:54:53.576Z,91.90
2023-05-08T17:57:23.880Z,92.55
2023-05-08T17:59:51.183Z,92.77
2023-05-08T18:02:18.578Z,92.69
2023-05-08T18:04:46.406Z,93.54
2023-05-08T18:07:13.650Z,94.07
2023-05-08T18:09:40.817Z,94.24
2023-05-08T18:12:08.007Z,94.23
2023-05-08T18:14:35.347Z,93.97
2023-05-08T18:17:02.316Z,94.64
2023-05-08T18:19:32.222Z,95.06
2023-05-08T18:22:00.152Z,94.95
2023-05-08T18:24:28.067Z,95.86
2023-05-08T18:26:55.444Z,96.43
2023-05-08T18:29:22.910Z,96.87
2023-05-08T18:31:50.354Z,97.48
2023-05-08T18:34:17.730Z,97.33
2023-05-08T18:36:44.739Z,97.30
2023-05-08T18:39:13.085Z,96.84
2023-05-08T18:41:40.627Z,96.17
2023-05-08T18:44:08.093Z,96.25
2023-05-08T18:46:35.404Z,95.95
2023-05-08T18:49:02.803Z,97.09
2023-05-08T18:51:31.789Z,96.62
2023-05-08T18:54:00.528Z,97.52
2023-05-08T18:56:28.037Z,97.90
2023-05-08T18:58:56.310Z,98.56
2023-05-08T19:01:24.472Z,98.79
2023-05-08T19:03:52.056Z,98.55
2023-05-08T19:06:20.499Z,98.90
2023-05-08T19:08:49.129Z,99.14
2023-05-08T19:11:19.861Z,99.39
2023-05-08T19:13:50.278Z,99.70
2023-05-08T19:16:17.465Z,99.24
2023-05-08T19:18:44.913Z,99.94
2023-05-08T19:21:16.777Z,99.28
2023-05-08T19:23:44.700Z,98.96
2023-05-08T19:26:12.109Z,99.62
2023-05-08T19:28:39.074Z,100.00
2023-05-08T19:31:05.927Z,100.00
2023-05-08T19:33:32.802Z,99.85
2023-05-08T19:35:59.728Z,100.00
2023-05-08T19:38:26.670Z,99.64
2023-05-08T19:40:57.282Z,99.44
2023-05-08T19:43:26.272Z,100.00
2023-05-08T19:45:53.815Z,100.00
2023-05-08T19:48:20.811Z,99.83
2023-05-08T19:50:47.746Z,100.00
2023-05-08T19:53:14.884Z,100.00
2023-05-08T19:55:41.834Z,99.93
2023-05-08T19:58:09.732Z,100.00
2023-05-08T20:00:36.610Z,100.00
2023-05-08T20:03:03.598Z,98.78
2023-05-08T20:05:30.869Z,100.00
2023-05-08T20:07:57.746Z,100.00
2023-05-08T20:10:24.845Z,100.00
2023-05-08T20:12:51.745Z,100.00
2023-05-08T20:15:18.703Z,100.00
2023-05-08T20:17:45.663Z,100.00
2023-05-08T20:20:13.067Z,100.00
2023-05-08T20:22:40.360Z,100.00
2023-05-08T20:25:07.917Z,100.00
2023-05-08T20:27:34.916Z,100.00
2023-05-08T20:30:02.234Z,100.00
2023-05-08T20:32:29.860Z,100.00
2023-05-08T20:34:57.264Z,100.00
2023-05-08T20:37:24.304Z,100.00
2023-05-08T20:39:51.273Z,100.00
2023-05-08T20:42:18.451Z,100.00
2023-05-08T20:44:46.833Z,100.00
2023-05-08T20:47:13.796Z,100.00
2023-05-08T20:49:40.792Z,100.00
2023-05-08T20:52:07.777Z,100.00
2023-05-08T20:54:34.979Z,100.00
2023-05-08T20:57:02.203Z,100.00
2023-05-08T20:59:29.055Z,100.00
2023-05-08T21:01:56.009Z,100.00
2023-05-08T21:04:22.917Z,100.00
2023-05-08T21:06:51.894Z,100.00
2023-05-08T21:09:19.135Z,100.00
2023-05-08T21:11:46.091Z,100.00
2023-05-08T21:14:12.899Z,100.00
2023-05-08T21:16:39.972Z,100.00
2023-05-08T21:19:06.955Z,100.00
2023-05-08T21:21:34.003Z,100.00
2023-05-08T21:24:01.083Z,100.00
2023-05-08T21:26:28.081Z,100.00
2023-05-08T21:28:54.983Z,100.00
2023-05-08T21:31:22.736Z,99.96
2023-05-08T21:33:49.715Z,99.72
2023-05-08T21:36:16.696Z,100.00
2023-05-08T21:38:43.684Z,99.81
2023-05-08T21:41:10.839Z,99.05
2023-05-08T21:43:37.792Z,99.86
2023-05-08T21:46:05.908Z,98.57
2023-05-08T21:48:33.716Z,98.61
2023-05-08T21:51:00.822Z,99.64
2023-05-08T21:53:27.933Z,99.78
2023-05-08T21:55:54.842Z,99.31
2023-05-08T21:58:21.713Z,99.11
2023-05-08T22:00:48.626Z,99.60
2023-05-08T22:03:15.891Z,100.00
2023-05-08T22:05:42.933Z,99.99
2023-05-08T22:08:09.887Z,100.00
2023-05-08T22:10:36.918Z,99.46
2023-05-08T22:13:04.345Z,99.75
2023-05-08T22:15:31.352Z,98.85
2023-05-08T22:17:59.564Z,98.25
2023-05-08T22:20:26.744Z,98.80
2023-05-08T22:22:53.704Z,98.95
2023-05-08T22:25:22.068Z,98.74
2023-05-08T22:27:49.034Z,98.72
2023-05-08T22:30:16.235Z,100.00
2023-05-08T22:32:43.430Z,100.00
2023-05-08T22:35:10.376Z,99.60
2023-05-08T22:37:37.347Z,100.00
2023-05-08T22:40:08.341Z,100.00
2023-05-08T22:42:35.249Z,99.85
2023-05-08T22:45:02.239Z,100.00
2023-05-08T22:47:29.337Z,99.97
2023-05-08T22:49:56.644Z,99.72
2023-05-08T22:52:23.529Z,99.00
2023-05-08T22:54:50.417Z,98.84
2023-05-08T22:57:17.353Z,98.98
2023-05-08T22:59:44.366Z,99.83
2023-05-08T23:02:11.303Z,99.85
2023-05-08T23:04:38.321Z,100.00
2023-05-08T23:07:05.397Z,100.00
2023-05-08T23:09:41.128Z,100.00
2023-05-08T23:12:08.256Z,100.00
2023-05-08T23:14:35.216Z,100.00
2023-05-08T23:17:02.564Z,100.00
2023-05-08T23:19:29.607Z,99.68
2023-05-08T23:21:56.548Z,100.00
2023-05-08T23:24:23.475Z,100.00
2023-05-08T23:26:52.593Z,100.00
2023-05-08T23:29:19.619Z,100.00
2023-05-08T23:31:46.458Z,100.00
2023-05-08T23:34:13.406Z,99.59
2023-05-08T23:36:40.208Z,99.89
2023-05-08T23:39:07.359Z,100.00
2023-05-08T23:41:34.345Z,100.00
2023-05-08T23:44:01.240Z,100.00
2023-05-08T23:46:28.205Z,100.00
2023-05-08T23:48:55.285Z,99.83
2023-05-08T23:51:23.175Z,99.89
2023-05-08T23:53:50.755Z,100.00
2023-05-08T23:56:17.697Z,100.00
2023-05-08T23:58:44.640Z,100.00
